sensor_id;sensor_type;location;lat;lon;timestamp;temperature;humidity
17774;DHT22;9011;33.236;-97.118;2024-02-04T11:22:01;11.20;99.90
17774;DHT22;9011;33.236;-97.118;2024-02-04T11:24:46;11.30;99.90
17774;DHT22;9011;33.236;-97.118;2024-02-04T11:27:19;11.20;99.90
17774;DHT22;9011;33.236;-97.118;2024-02-04T11:29:47;11.20;99.90
17774;DHT22;9011;33.236;-97.118;2024-02-04T11:32:14;11.10;99.90
17774;DHT22;9011;33.236;-97.118;2024-02-04T11:34:44;11.10;99.90
17774;DHT22;9011;33.236;-97.118;2024-02-04T11:37:16;11.10;99.90
17774;DHT22;9011;33.236;-97.118;2024-02-04T11:39:52;11.10;99.90
17774;DHT22;9011;33.236;-97.118;2024-02-04T11:42:20;11.10;99.90
17774;DHT22;9011;33.236;-97.118;2024-02-04T11:44:47;11.10;99.90
17774;DHT22;9011;33.236;-97.118;2024-02-04T11:47:23;11.10;99.90
17774;DHT22;9011;33.236;-97.118;2024-02-04T11:49:55;11.10;99.90
17774;DHT22;9011;33.236;-97.118;2024-02-04T11:52:23;11.10;99.90
17774;DHT22;9011;33.236;-97.118;2024-02-04T11:54:54;11.10;99.90
17774;DHT22;9011;33.236;-97.118;2024-02-04T11:57:22;11.10;99.90
17774;DHT22;9011;33.236;-97.118;2024-02-04T11:59:51;11.10;99.90
17774;DHT22;9011;33.236;-97.118;2024-02-04T12:02:20;11.10;99.90
17774;DHT22;9011;33.236;-97.118;2024-02-04T12:04:48;11.10;99.90
17774;DHT22;9011;33.236;-97.118;2024-02-04T12:07:17;11.10;99.90
17774;DHT22;9011;33.236;-97.118;2024-02-04T12:09:46;11.10;99.90
17774;DHT22;9011;33.236;-97.118;2024-02-04T12:12:15;11.20;99.90
17774;DHT22;9011;33.236;-97.118;2024-02-04T12:14:43;11.20;99.90
17774;DHT22;9011;33.236;-97.118;2024-02-04T12:17:12;11.20;99.90
17774;DHT22;9011;33.236;-97.118;2024-02-04T12:19:40;11.10;99.90
17774;DHT22;9011;33.236;-97.118;2024-02-04T12:22:08;11.20;99.90
17774;DHT22;9011;33.236;-97.118;2024-02-04T12:24:37;11.10;99.90
17774;DHT22;9011;33.236;-97.118;2024-02-04T12:27:06;11.10;99.90
17774;DHT22;9011;33.236;-97.118;2024-02-04T12:29:33;11.10;99.90
17774;DHT22;9011;33.236;-97.118;2024-02-04T12:32:02;11.00;99.90
17774;DHT22;9011;33.236;-97.118;2024-02-04T12:34:30;11.00;99.90
17774;DHT22;9011;33.236;-97.118;2024-02-04T12:36:59;11.00;99.90
17774;DHT22;9011;33.236;-97.118;2024-02-04T12:39:27;11.00;99.90
17774;DHT22;9011;33.236;-97.118;2024-02-04T12:41:55;11.00;99.90
17774;DHT22;9011;33.236;-97.118;2024-02-04T12:44:23;11.00;99.90
17774;DHT22;9011;33.236;-97.118;2024-02-04T12:46:51;10.90;99.90
17774;DHT22;9011;33.236;-97.118;2024-02-04T12:49:20;10.90;99.90
17774;DHT22;9011;33.236;-97.118;2024-02-04T12:51:48;10.90;99.90
17774;DHT22;9011;33.236;-97.118;2024-02-04T12:54:18;10.90;99.90
17774;DHT22;9011;33.236;-97.118;2024-02-04T12:56:47;10.90;99.90
17774;DHT22;9011;33.236;-97.118;2024-02-04T12:59:26;10.90;99.90
17774;DHT22;9011;33.236;-97.118;2024-02-04T13:01:54;10.80;99.90
17774;DHT22;9011;33.236;-97.118;2024-02-04T13:04:23;10.90;99.90
17774;DHT22;9011;33.236;-97.118;2024-02-04T13:06:51;10.80;99.90
17774;DHT22;9011;33.236;-97.118;2024-02-04T13:09:18;10.70;99.90
17774;DHT22;9011;33.236;-97.118;2024-02-04T13:11:46;10.70;99.90
17774;DHT22;9011;33.236;-97.118;2024-02-04T13:14:14;10.70;99.90
17774;DHT22;9011;33.236;-97.118;2024-02-04T13:16:42;10.60;99.90
17774;DHT22;9011;33.236;-97.118;2024-02-04T13:19:10;10.50;99.90
17774;DHT22;9011;33.236;-97.118;2024-02-04T13:21:38;10.40;99.90
17774;DHT22;9011;33.236;-97.118;2024-02-04T13:24:06;10.30;99.90
17774;DHT22;9011;33.236;-97.118;2024-02-04T13:26:33;10.20;99.90
17774;DHT22;9011;33.236;-97.118;2024-02-04T13:29:01;10.20;99.90
17774;DHT22;9011;33.236;-97.118;2024-02-04T13:31:29;10.20;99.90
17774;DHT22;9011;33.236;-97.118;2024-02-04T13:33:57;10.10;99.90
17774;DHT22;9011;33.236;-97.118;2024-02-04T13:36:25;10.10;99.90
17774;DHT22;9011;33.236;-97.118;2024-02-04T13:38:52;10.10;99.90
17774;DHT22;9011;33.236;-97.118;2024-02-04T13:41:20;10.10;99.90
17774;DHT22;9011;33.236;-97.118;2024-02-04T13:43:48;10.10;99.90
17774;DHT22;9011;33.236;-97.118;2024-02-04T13:46:16;10.10;99.90
17774;DHT22;9011;33.236;-97.118;2024-02-04T13:48:43;10.10;99.90
17774;DHT22;9011;33.236;-97.118;2024-02-04T13:51:12;10.00;99.90
17774;DHT22;9011;33.236;-97.118;2024-02-04T13:53:39;10.00;99.90
17774;DHT22;9011;33.236;-97.118;2024-02-04T13:56:07;9.90;99.90
17774;DHT22;9011;33.236;-97.118;2024-02-04T13:58:35;9.90;99.90
17774;DHT22;9011;33.236;-97.118;2024-02-04T14:01:02;9.90;99.90
17774;DHT22;9011;33.236;-97.118;2024-02-04T14:03:31;9.90;99.90
17774;DHT22;9011;33.236;-97.118;2024-02-04T14:05:58;9.90;99.90
17774;DHT22;9011;33.236;-97.118;2024-02-04T14:08:30;10.00;99.90
17774;DHT22;9011;33.236;-97.118;2024-02-04T14:10:58;10.00;99.90
17774;DHT22;9011;33.236;-97.118;2024-02-04T14:13:26;9.90;99.90
17774;DHT22;9011;33.236;-97.118;2024-02-04T14:15:53;9.90;99.90
17774;DHT22;9011;33.236;-97.118;2024-02-04T14:18:21;9.80;99.90
17774;DHT22;9011;33.236;-97.118;2024-02-04T14:20:48;9.80;99.90
17774;DHT22;9011;33.236;-97.118;2024-02-04T14:23:16;9.80;99.90
17774;DHT22;9011;33.236;-97.118;2024-02-04T14:25:44;9.80;99.90
17774;DHT22;9011;33.236;-97.118;2024-02-04T14:28:12;9.80;99.90
17774;DHT22;9011;33.236;-97.118;2024-02-04T14:30:40;9.80;99.90
17774;DHT22;9011;33.236;-97.118;2024-02-04T14:33:07;9.80;99.90
17774;DHT22;9011;33.236;-97.118;2024-02-04T14:35:35;9.80;99.90
17774;DHT22;9011;33.236;-97.118;2024-02-04T14:38:03;9.90;99.90
17774;DHT22;9011;33.236;-97.118;2024-02-04T14:40:30;9.90;99.90
17774;DHT22;9011;33.236;-97.118;2024-02-04T14:42:59;9.90;99.90
17774;DHT22;9011;33.236;-97.118;2024-02-04T14:45:28;9.80;99.90
17774;DHT22;9011;33.236;-97.118;2024-02-04T14:47:56;9.80;99.90
17774;DHT22;9011;33.236;-97.118;2024-02-04T14:50:23;9.80;99.90
17774;DHT22;9011;33.236;-97.118;2024-02-04T14:52:51;9.80;99.90
17774;DHT22;9011;33.236;-97.118;2024-02-04T14:55:19;9.90;99.90
17774;DHT22;9011;33.236;-97.118;2024-02-04T14:57:46;9.90;99.90
17774;DHT22;9011;33.236;-97.118;2024-02-04T15:00:16;10.00;99.90
17774;DHT22;9011;33.236;-97.118;2024-02-04T15:02:44;9.90;99.90
17774;DHT22;9011;33.236;-97.118;2024-02-04T15:05:11;9.90;99.90
17774;DHT22;9011;33.236;-97.118;2024-02-04T15:07:39;9.90;99.90
17774;DHT22;9011;33.236;-97.118;2024-02-04T15:10:07;10.00;99.90
17774;DHT22;9011;33.236;-97.118;2024-02-04T15:12:36;10.00;99.90
17774;DHT22;9011;33.236;-97.118;2024-02-04T15:15:05;10.00;99.90
17774;DHT22;9011;33.236;-97.118;2024-02-04T15:17:35;10.10;99.90
17774;DHT22;9011;33.236;-97.118;2024-02-04T15:20:03;10.10;99.90
17774;DHT22;9011;33.236;-97.118;2024-02-04T15:22:31;10.10;99.90
17774;DHT22;9011;33.236;-97.118;2024-02-04T15:24:59;10.20;99.90
17774;DHT22;9011;33.236;-97.118;2024-02-04T15:27:27;10.20;99.90
17774;DHT22;9011;33.236;-97.118;2024-02-04T15:29:56;10.20;99.90
17774;DHT22;9011;33.236;-97.118;2024-02-04T15:32:24;10.20;99.90
17774;DHT22;9011;33.236;-97.118;2024-02-04T15:34:53;10.20;99.90
17774;DHT22;9011;33.236;-97.118;2024-02-04T15:37:20;10.10;99.90
17774;DHT22;9011;33.236;-97.118;2024-02-04T15:39:48;10.20;99.90
17774;DHT22;9011;33.236;-97.118;2024-02-04T15:42:16;10.20;99.90
17774;DHT22;9011;33.236;-97.118;2024-02-04T15:44:43;10.20;99.90
17774;DHT22;9011;33.236;-97.118;2024-02-04T15:47:11;10.20;99.90
17774;DHT22;9011;33.236;-97.118;2024-02-04T15:49:39;10.30;99.90
17774;DHT22;9011;33.236;-97.118;2024-02-04T15:52:10;10.40;99.90
17774;DHT22;9011;33.236;-97.118;2024-02-04T15:54:38;10.30;99.90
17774;DHT22;9011;33.236;-97.118;2024-02-04T15:57:08;10.40;99.90
17774;DHT22;9011;33.236;-97.118;2024-02-04T15:59:46;10.40;99.90
17774;DHT22;9011;33.236;-97.118;2024-02-04T16:02:15;10.40;99.90
17774;DHT22;9011;33.236;-97.118;2024-02-04T16:04:43;10.30;99.90
17774;DHT22;9011;33.236;-97.118;2024-02-04T16:07:13;10.40;99.90
17774;DHT22;9011;33.236;-97.118;2024-02-04T16:09:42;10.50;99.90
17774;DHT22;9011;33.236;-97.118;2024-02-04T16:12:17;10.60;99.90
17774;DHT22;9011;33.236;-97.118;2024-02-04T16:14:46;10.70;99.90
17774;DHT22;9011;33.236;-97.118;2024-02-04T16:17:16;10.80;99.90
17774;DHT22;9011;33.236;-97.118;2024-02-04T16:19:45;10.90;99.90
17774;DHT22;9011;33.236;-97.118;2024-02-04T16:22:14;11.00;99.90
17774;DHT22;9011;33.236;-97.118;2024-02-04T16:24:42;11.20;99.90
17774;DHT22;9011;33.236;-97.118;2024-02-04T16:27:09;11.30;99.90
17774;DHT22;9011;33.236;-97.118;2024-02-04T16:29:37;11.40;99.90
17774;DHT22;9011;33.236;-97.118;2024-02-04T16:32:05;11.40;99.90
17774;DHT22;9011;33.236;-97.118;2024-02-04T16:34:33;11.60;99.90
17774;DHT22;9011;33.236;-97.118;2024-02-04T16:37:01;11.60;99.90
17774;DHT22;9011;33.236;-97.118;2024-02-04T16:39:32;11.80;99.90
17774;DHT22;9011;33.236;-97.118;2024-02-04T16:42:00;12.00;99.90
17774;DHT22;9011;33.236;-97.118;2024-02-04T16:44:27;12.20;99.90
17774;DHT22;9011;33.236;-97.118;2024-02-04T16:46:55;12.40;99.90
17774;DHT22;9011;33.236;-97.118;2024-02-04T16:49:23;12.50;99.90
17774;DHT22;9011;33.236;-97.118;2024-02-04T16:51:51;12.70;99.90
17774;DHT22;9011;33.236;-97.118;2024-02-04T16:54:19;13.00;99.90
17774;DHT22;9011;33.236;-97.118;2024-02-04T16:56:55;13.10;99.90
17774;DHT22;9011;33.236;-97.118;2024-02-04T16:59:23;13.20;99.90
17774;DHT22;9011;33.236;-97.118;2024-02-04T17:01:51;13.50;99.90
17774;DHT22;9011;33.236;-97.118;2024-02-04T17:04:19;13.60;99.90
17774;DHT22;9011;33.236;-97.118;2024-02-04T17:06:47;13.80;99.90
17774;DHT22;9011;33.236;-97.118;2024-02-04T17:09:15;13.70;99.90
17774;DHT22;9011;33.236;-97.118;2024-02-04T17:11:44;13.90;99.90
17774;DHT22;9011;33.236;-97.118;2024-02-04T17:14:14;14.00;99.90
17774;DHT22;9011;33.236;-97.118;2024-02-04T17:16:45;14.00;99.90
17774;DHT22;9011;33.236;-97.118;2024-02-04T17:19:20;14.10;99.90
17774;DHT22;9011;33.236;-97.118;2024-02-04T17:21:55;14.20;99.90
17774;DHT22;9011;33.236;-97.118;2024-02-04T17:24:26;14.30;99.90
17774;DHT22;9011;33.236;-97.118;2024-02-04T17:26:55;14.30;99.90
17774;DHT22;9011;33.236;-97.118;2024-02-04T17:29:24;14.50;99.90
17774;DHT22;9011;33.236;-97.118;2024-02-04T17:31:53;14.50;99.90
17774;DHT22;9011;33.236;-97.118;2024-02-04T17:34:21;14.60;99.90
17774;DHT22;9011;33.236;-97.118;2024-02-04T17:36:49;14.60;99.90
17774;DHT22;9011;33.236;-97.118;2024-02-04T17:39:16;14.70;99.90
17774;DHT22;9011;33.236;-97.118;2024-02-04T17:41:47;14.70;99.90
17774;DHT22;9011;33.236;-97.118;2024-02-04T17:44:14;14.80;99.90
17774;DHT22;9011;33.236;-97.118;2024-02-04T17:46:46;15.20;99.90
17774;DHT22;9011;33.236;-97.118;2024-02-04T17:49:14;15.40;99.90
17774;DHT22;9011;33.236;-97.118;2024-02-04T17:51:42;15.50;99.90
17774;DHT22;9011;33.236;-97.118;2024-02-04T17:54:10;15.50;99.90
17774;DHT22;9011;33.236;-97.118;2024-02-04T17:56:38;15.60;99.90
17774;DHT22;9011;33.236;-97.118;2024-02-04T17:59:06;15.60;99.90
17774;DHT22;9011;33.236;-97.118;2024-02-04T18:01:33;15.60;99.90
17774;DHT22;9011;33.236;-97.118;2024-02-04T18:04:02;15.80;99.90
17774;DHT22;9011;33.236;-97.118;2024-02-04T18:06:30;15.90;99.90
17774;DHT22;9011;33.236;-97.118;2024-02-04T18:09:00;16.00;99.90
17774;DHT22;9011;33.236;-97.118;2024-02-04T18:11:28;16.00;99.90
17774;DHT22;9011;33.236;-97.118;2024-02-04T18:13:55;16.10;99.90
17774;DHT22;9011;33.236;-97.118;2024-02-04T18:16:23;16.30;99.90
17774;DHT22;9011;33.236;-97.118;2024-02-04T18:18:51;16.50;99.90
17774;DHT22;9011;33.236;-97.118;2024-02-04T18:21:22;16.40;99.90
17774;DHT22;9011;33.236;-97.118;2024-02-04T18:23:51;16.50;99.90
17774;DHT22;9011;33.236;-97.118;2024-02-04T18:26:19;16.30;99.90
17774;DHT22;9011;33.236;-97.118;2024-02-04T18:28:47;16.40;99.90
17774;DHT22;9011;33.236;-97.118;2024-02-04T18:31:15;16.70;99.90
17774;DHT22;9011;33.236;-97.118;2024-02-04T18:33:43;16.70;99.90
17774;DHT22;9011;33.236;-97.118;2024-02-04T18:36:11;16.70;99.90
17774;DHT22;9011;33.236;-97.118;2024-02-04T18:38:40;16.60;99.90
17774;DHT22;9011;33.236;-97.118;2024-02-04T18:41:08;16.50;99.90
17774;DHT22;9011;33.236;-97.118;2024-02-04T18:43:36;16.30;99.90
17774;DHT22;9011;33.236;-97.118;2024-02-04T18:46:04;16.30;99.90
17774;DHT22;9011;33.236;-97.118;2024-02-04T18:48:34;16.30;99.90
17774;DHT22;9011;33.236;-97.118;2024-02-04T18:51:03;16.30;99.90
17774;DHT22;9011;33.236;-97.118;2024-02-04T18:53:32;16.50;99.90
17774;DHT22;9011;33.236;-97.118;2024-02-04T18:56:04;16.60;99.90
17774;DHT22;9011;33.236;-97.118;2024-02-04T18:58:32;16.90;99.90
17774;DHT22;9011;33.236;-97.118;2024-02-04T19:01:00;16.90;99.90
17774;DHT22;9011;33.236;-97.118;2024-02-04T19:03:29;16.70;99.90
17774;DHT22;9011;33.236;-97.118;2024-02-04T19:05:56;16.60;99.90
17774;DHT22;9011;33.236;-97.118;2024-02-04T19:08:24;16.50;99.90
17774;DHT22;9011;33.236;-97.118;2024-02-04T19:10:53;16.40;99.90
17774;DHT22;9011;33.236;-97.118;2024-02-04T19:13:24;16.20;99.90
17774;DHT22;9011;33.236;-97.118;2024-02-04T19:15:52;16.00;99.90
17774;DHT22;9011;33.236;-97.118;2024-02-04T19:18:20;16.00;99.90
17774;DHT22;9011;33.236;-97.118;2024-02-04T19:20:47;16.10;99.90
17774;DHT22;9011;33.236;-97.118;2024-02-04T19:23:15;16.30;99.90
17774;DHT22;9011;33.236;-97.118;2024-02-04T19:25:44;16.60;99.90
17774;DHT22;9011;33.236;-97.118;2024-02-04T19:28:11;16.80;99.90
17774;DHT22;9011;33.236;-97.118;2024-02-04T19:30:41;16.80;99.90
17774;DHT22;9011;33.236;-97.118;2024-02-04T19:33:09;16.70;99.90
17774;DHT22;9011;33.236;-97.118;2024-02-04T19:35:37;16.70;99.90
17774;DHT22;9011;33.236;-97.118;2024-02-04T19:38:05;16.60;99.90
17774;DHT22;9011;33.236;-97.118;2024-02-04T19:40:33;16.40;99.90
17774;DHT22;9011;33.236;-97.118;2024-02-04T19:43:01;16.40;99.90
17774;DHT22;9011;33.236;-97.118;2024-02-04T19:45:29;16.40;99.90
17774;DHT22;9011;33.236;-97.118;2024-02-04T19:47:58;16.20;99.90
17774;DHT22;9011;33.236;-97.118;2024-02-04T19:50:25;15.60;99.90
17774;DHT22;9011;33.236;-97.118;2024-02-04T19:52:53;15.50;99.90
17774;DHT22;9011;33.236;-97.118;2024-02-04T19:55:21;15.00;99.90
17774;DHT22;9011;33.236;-97.118;2024-02-04T19:57:48;14.50;99.90
17774;DHT22;9011;33.236;-97.118;2024-02-04T20:00:17;14.30;99.90
17774;DHT22;9011;33.236;-97.118;2024-02-04T20:02:45;14.50;99.90
17774;DHT22;9011;33.236;-97.118;2024-02-04T20:05:14;14.60;99.90
17774;DHT22;9011;33.236;-97.118;2024-02-04T20:07:44;15.00;99.90
17774;DHT22;9011;33.236;-97.118;2024-02-04T20:10:11;15.10;99.90
17774;DHT22;9011;33.236;-97.118;2024-02-04T20:12:39;15.30;99.90
17774;DHT22;9011;33.236;-97.118;2024-02-04T20:15:07;15.40;99.90
17774;DHT22;9011;33.236;-97.118;2024-02-04T20:17:35;14.50;99.90
17774;DHT22;9011;33.236;-97.118;2024-02-04T20:20:04;13.70;99.90
17774;DHT22;9011;33.236;-97.118;2024-02-04T20:22:33;13.20;99.90
17774;DHT22;9011;33.236;-97.118;2024-02-04T20:25:00;12.90;99.90
17774;DHT22;9011;33.236;-97.118;2024-02-04T20:27:29;12.70;99.90
17774;DHT22;9011;33.236;-97.118;2024-02-04T20:29:57;12.50;99.90
17774;DHT22;9011;33.236;-97.118;2024-02-04T20:32:24;12.50;99.90
17774;DHT22;9011;33.236;-97.118;2024-02-04T20:34:52;12.60;99.90
17774;DHT22;9011;33.236;-97.118;2024-02-04T20:37:20;12.70;99.90
17774;DHT22;9011;33.236;-97.118;2024-02-04T20:39:48;12.90;99.90
17774;DHT22;9011;33.236;-97.118;2024-02-04T20:42:16;13.00;99.90
17774;DHT22;9011;33.236;-97.118;2024-02-04T20:44:43;13.10;99.90
17774;DHT22;9011;33.236;-97.118;2024-02-04T20:47:11;13.30;99.90
17774;DHT22;9011;33.236;-97.118;2024-02-04T20:49:39;13.60;99.90
17774;DHT22;9011;33.236;-97.118;2024-02-04T20:52:06;14.00;99.90
17774;DHT22;9011;33.236;-97.118;2024-02-04T20:54:34;14.30;99.90
17774;DHT22;9011;33.236;-97.118;2024-02-04T20:57:02;14.40;99.90
17774;DHT22;9011;33.236;-97.118;2024-02-04T20:59:30;14.50;99.90
17774;DHT22;9011;33.236;-97.118;2024-02-04T21:01:58;14.50;99.90
17774;DHT22;9011;33.236;-97.118;2024-02-04T21:04:25;14.60;99.90
17774;DHT22;9011;33.236;-97.118;2024-02-04T21:06:53;14.80;99.90
17774;DHT22;9011;33.236;-97.118;2024-02-04T21:09:21;15.00;99.90
17774;DHT22;9011;33.236;-97.118;2024-02-04T21:11:48;15.00;99.90
17774;DHT22;9011;33.236;-97.118;2024-02-04T21:14:17;15.00;99.90
17774;DHT22;9011;33.236;-97.118;2024-02-04T21:16:45;15.10;99.90
17774;DHT22;9011;33.236;-97.118;2024-02-04T21:19:12;15.00;99.90
17774;DHT22;9011;33.236;-97.118;2024-02-04T21:21:40;15.10;99.90
17774;DHT22;9011;33.236;-97.118;2024-02-04T21:24:08;15.10;99.90
17774;DHT22;9011;33.236;-97.118;2024-02-04T21:26:36;15.20;99.90
17774;DHT22;9011;33.236;-97.118;2024-02-04T21:29:04;15.20;99.90
17774;DHT22;9011;33.236;-97.118;2024-02-04T21:31:32;15.10;99.90
17774;DHT22;9011;33.236;-97.118;2024-02-04T21:34:00;15.10;99.90
17774;DHT22;9011;33.236;-97.118;2024-02-04T21:36:27;15.00;99.90
17774;DHT22;9011;33.236;-97.118;2024-02-04T21:38:55;15.00;99.90
17774;DHT22;9011;33.236;-97.118;2024-02-04T21:41:22;15.00;99.90
17774;DHT22;9011;33.236;-97.118;2024-02-04T21:43:50;14.90;99.90
17774;DHT22;9011;33.236;-97.118;2024-02-04T21:46:17;14.80;99.90
17774;DHT22;9011;33.236;-97.118;2024-02-04T21:48:46;14.70;99.90
17774;DHT22;9011;33.236;-97.118;2024-02-04T21:51:13;14.70;99.90
17774;DHT22;9011;33.236;-97.118;2024-02-04T21:53:41;14.70;99.90
17774;DHT22;9011;33.236;-97.118;2024-02-04T21:56:09;14.70;99.90
17774;DHT22;9011;33.236;-97.118;2024-02-04T21:58:36;14.60;99.90
17774;DHT22;9011;33.236;-97.118;2024-02-04T22:01:04;14.60;99.90
17774;DHT22;9011;33.236;-97.118;2024-02-04T22:03:32;14.50;99.90
17774;DHT22;9011;33.236;-97.118;2024-02-04T22:06:01;14.50;99.90
17774;DHT22;9011;33.236;-97.118;2024-02-04T22:08:28;14.50;99.90
17774;DHT22;9011;33.236;-97.118;2024-02-04T22:10:56;14.50;99.90
17774;DHT22;9011;33.236;-97.118;2024-02-04T22:13:24;14.50;99.90
17774;DHT22;9011;33.236;-97.118;2024-02-04T22:15:51;14.50;99.90
17774;DHT22;9011;33.236;-97.118;2024-02-04T22:18:20;14.60;99.90
17774;DHT22;9011;33.236;-97.118;2024-02-04T22:20:47;14.60;99.90
17774;DHT22;9011;33.236;-97.118;2024-02-04T22:23:16;14.60;99.90
17774;DHT22;9011;33.236;-97.118;2024-02-04T22:25:43;14.60;99.90
17774;DHT22;9011;33.236;-97.118;2024-02-04T22:28:13;14.60;99.90
17774;DHT22;9011;33.236;-97.118;2024-02-04T22:30:40;14.70;99.90
17774;DHT22;9011;33.236;-97.118;2024-02-04T22:33:09;14.60;99.90
17774;DHT22;9011;33.236;-97.118;2024-02-04T22:35:37;14.50;99.90
17774;DHT22;9011;33.236;-97.118;2024-02-04T22:38:04;14.40;99.90
17774;DHT22;9011;33.236;-97.118;2024-02-04T22:40:33;14.30;99.90
17774;DHT22;9011;33.236;-97.118;2024-02-04T22:43:01;14.20;99.90
17774;DHT22;9011;33.236;-97.118;2024-02-04T22:45:29;14.20;99.90
17774;DHT22;9011;33.236;-97.118;2024-02-04T22:47:57;14.10;99.90
17774;DHT22;9011;33.236;-97.118;2024-02-04T22:50:24;14.10;99.90
17774;DHT22;9011;33.236;-97.118;2024-02-04T22:52:52;13.90;99.90
17774;DHT22;9011;33.236;-97.118;2024-02-04T22:55:20;14.00;99.90
17774;DHT22;9011;33.236;-97.118;2024-02-04T22:57:48;14.00;99.90
17774;DHT22;9011;33.236;-97.118;2024-02-04T23:00:16;14.00;99.90
17774;DHT22;9011;33.236;-97.118;2024-02-04T23:02:54;13.90;99.90
17774;DHT22;9011;33.236;-97.118;2024-02-04T23:05:21;13.90;99.90
17774;DHT22;9011;33.236;-97.118;2024-02-04T23:07:49;13.80;99.90
17774;DHT22;9011;33.236;-97.118;2024-02-04T23:10:17;13.80;99.90
17774;DHT22;9011;33.236;-97.118;2024-02-04T23:12:44;13.80;99.90
17774;DHT22;9011;33.236;-97.118;2024-02-04T23:15:13;13.70;99.90
17774;DHT22;9011;33.236;-97.118;2024-02-04T23:17:40;13.70;99.90
17774;DHT22;9011;33.236;-97.118;2024-02-04T23:20:09;13.70;99.90
17774;DHT22;9011;33.236;-97.118;2024-02-04T23:22:37;13.70;99.90
17774;DHT22;9011;33.236;-97.118;2024-02-04T23:25:05;13.70;99.90
17774;DHT22;9011;33.236;-97.118;2024-02-04T23:27:33;13.60;99.90
17774;DHT22;9011;33.236;-97.118;2024-02-04T23:30:01;13.60;99.90
17774;DHT22;9011;33.236;-97.118;2024-02-04T23:32:29;13.60;99.90
17774;DHT22;9011;33.236;-97.118;2024-02-04T23:34:57;13.50;99.90
17774;DHT22;9011;33.236;-97.118;2024-02-04T23:37:25;13.50;99.90
17774;DHT22;9011;33.236;-97.118;2024-02-04T23:39:52;13.50;99.90
17774;DHT22;9011;33.236;-97.118;2024-02-04T23:42:20;13.50;99.90
17774;DHT22;9011;33.236;-97.118;2024-02-04T23:44:48;13.50;99.90
17774;DHT22;9011;33.236;-97.118;2024-02-04T23:47:17;13.40;99.90
17774;DHT22;9011;33.236;-97.118;2024-02-04T23:49:47;13.40;99.90
17774;DHT22;9011;33.236;-97.118;2024-02-04T23:52:15;13.30;99.90
17774;DHT22;9011;33.236;-97.118;2024-02-04T23:54:42;13.30;99.90
17774;DHT22;9011;33.236;-97.118;2024-02-04T23:57:10;13.40;99.90
17774;DHT22;9011;33.236;-97.118;2024-02-04T23:59:38;13.40;99.90
